sensor_id;sensor_type;location;lat;lon;timestamp;temperature;humidity
14473;DHT22;7322;50.872;4.386;2024-01-15T00:01:56;17.60;99.90
14473;DHT22;7322;50.872;4.386;2024-01-15T00:04:23;17.60;99.90
14473;DHT22;7322;50.872;4.386;2024-01-15T00:06:57;17.60;99.90
14473;DHT22;7322;50.872;4.386;2024-01-15T00:09:24;17.60;99.90
14473;DHT22;7322;50.872;4.386;2024-01-15T00:11:53;17.50;99.90
14473;DHT22;7322;50.872;4.386;2024-01-15T00:14:20;17.50;99.90
14473;DHT22;7322;50.872;4.386;2024-01-15T00:16:47;17.50;99.90
14473;DHT22;7322;50.872;4.386;2024-01-15T00:19:16;17.50;99.90
14473;DHT22;7322;50.872;4.386;2024-01-15T00:21:43;17.50;99.90
14473;DHT22;7322;50.872;4.386;2024-01-15T00:24:15;17.50;99.90
14473;DHT22;7322;50.872;4.386;2024-01-15T00:26:42;17.50;99.90
14473;DHT22;7322;50.872;4.386;2024-01-15T00:29:09;17.50;99.90
14473;DHT22;7322;50.872;4.386;2024-01-15T00:31:36;17.40;99.90
14473;DHT22;7322;50.872;4.386;2024-01-15T00:34:03;17.50;99.90
14473;DHT22;7322;50.872;4.386;2024-01-15T00:36:30;17.40;99.90
14473;DHT22;7322;50.872;4.386;2024-01-15T00:38:57;17.40;99.90
14473;DHT22;7322;50.872;4.386;2024-01-15T00:41:27;17.40;99.90
14473;DHT22;7322;50.872;4.386;2024-01-15T00:43:54;17.40;99.90
14473;DHT22;7322;50.872;4.386;2024-01-15T00:46:21;17.40;99.90
14473;DHT22;7322;50.872;4.386;2024-01-15T00:48:48;17.40;99.90
14473;DHT22;7322;50.872;4.386;2024-01-15T00:51:15;17.40;99.90
14473;DHT22;7322;50.872;4.386;2024-01-15T00:53:42;17.30;99.90
14473;DHT22;7322;50.872;4.386;2024-01-15T00:56:10;17.30;99.90
14473;DHT22;7322;50.872;4.386;2024-01-15T00:58:38;17.30;99.90
14473;DHT22;7322;50.872;4.386;2024-01-15T01:01:05;17.30;99.90
14473;DHT22;7322;50.872;4.386;2024-01-15T01:03:33;17.30;99.90
14473;DHT22;7322;50.872;4.386;2024-01-15T01:06:00;17.20;99.90
14473;DHT22;7322;50.872;4.386;2024-01-15T01:08:27;17.20;99.90
14473;DHT22;7322;50.872;4.386;2024-01-15T01:10:56;17.20;99.90
14473;DHT22;7322;50.872;4.386;2024-01-15T01:13:23;17.10;99.90
14473;DHT22;7322;50.872;4.386;2024-01-15T01:15:51;17.20;99.90
14473;DHT22;7322;50.872;4.386;2024-01-15T01:18:18;17.20;99.90
14473;DHT22;7322;50.872;4.386;2024-01-15T01:20:45;17.10;99.90
14473;DHT22;7322;50.872;4.386;2024-01-15T01:23:12;17.10;99.90
14473;DHT22;7322;50.872;4.386;2024-01-15T01:25:39;17.10;99.90
14473;DHT22;7322;50.872;4.386;2024-01-15T01:28:06;17.10;99.90
14473;DHT22;7322;50.872;4.386;2024-01-15T01:30:33;17.10;99.90
14473;DHT22;7322;50.872;4.386;2024-01-15T01:33:01;17.10;99.90
14473;DHT22;7322;50.872;4.386;2024-01-15T01:35:28;17.10;99.90
14473;DHT22;7322;50.872;4.386;2024-01-15T01:37:55;17.00;99.90
14473;DHT22;7322;50.872;4.386;2024-01-15T01:40:22;17.10;99.90
14473;DHT22;7322;50.872;4.386;2024-01-15T01:42:49;17.00;99.90
14473;DHT22;7322;50.872;4.386;2024-01-15T01:45:16;17.00;99.90
14473;DHT22;7322;50.872;4.386;2024-01-15T01:47:43;17.10;99.90
14473;DHT22;7322;50.872;4.386;2024-01-15T01:50:12;17.10;99.90
14473;DHT22;7322;50.872;4.386;2024-01-15T01:52:40;17.00;99.90
14473;DHT22;7322;50.872;4.386;2024-01-15T01:55:09;17.00;99.90
14473;DHT22;7322;50.872;4.386;2024-01-15T01:57:38;17.00;99.90
14473;DHT22;7322;50.872;4.386;2024-01-15T02:00:06;17.00;99.90
14473;DHT22;7322;50.872;4.386;2024-01-15T02:02:34;17.00;99.90
14473;DHT22;7322;50.872;4.386;2024-01-15T02:05:04;17.00;99.90
14473;DHT22;7322;50.872;4.386;2024-01-15T02:07:34;17.00;99.90
14473;DHT22;7322;50.872;4.386;2024-01-15T02:10:02;17.00;99.90
14473;DHT22;7322;50.872;4.386;2024-01-15T02:12:29;17.00;99.90
14473;DHT22;7322;50.872;4.386;2024-01-15T02:14:56;17.00;99.90
14473;DHT22;7322;50.872;4.386;2024-01-15T02:17:23;17.00;99.90
14473;DHT22;7322;50.872;4.386;2024-01-15T02:19:50;17.00;99.90
14473;DHT22;7322;50.872;4.386;2024-01-15T02:22:17;17.00;99.90
14473;DHT22;7322;50.872;4.386;2024-01-15T02:24:45;17.00;99.90
14473;DHT22;7322;50.872;4.386;2024-01-15T02:27:12;17.00;99.90
14473;DHT22;7322;50.872;4.386;2024-01-15T02:29:39;17.00;99.90
14473;DHT22;7322;50.872;4.386;2024-01-15T02:32:08;17.00;99.90
14473;DHT22;7322;50.872;4.386;2024-01-15T02:34:35;17.00;99.90
14473;DHT22;7322;50.872;4.386;2024-01-15T02:37:04;17.00;99.90
14473;DHT22;7322;50.872;4.386;2024-01-15T02:39:31;17.00;99.90
14473;DHT22;7322;50.872;4.386;2024-01-15T02:41:59;16.90;99.90
14473;DHT22;7322;50.872;4.386;2024-01-15T02:44:26;17.00;99.90
14473;DHT22;7322;50.872;4.386;2024-01-15T02:46:53;17.00;99.90
14473;DHT22;7322;50.872;4.386;2024-01-15T02:49:20;17.00;99.90
14473;DHT22;7322;50.872;4.386;2024-01-15T02:51:47;17.00;99.90
14473;DHT22;7322;50.872;4.386;2024-01-15T02:54:13;17.00;99.90
14473;DHT22;7322;50.872;4.386;2024-01-15T02:56:40;17.00;99.90
14473;DHT22;7322;50.872;4.386;2024-01-15T02:59:10;17.00;99.90
14473;DHT22;7322;50.872;4.386;2024-01-15T03:01:37;16.90;99.90
14473;DHT22;7322;50.872;4.386;2024-01-15T03:04:04;16.90;99.90
14473;DHT22;7322;50.872;4.386;2024-01-15T03:06:31;16.90;99.90
14473;DHT22;7322;50.872;4.386;2024-01-15T03:08:58;17.00;99.90
14473;DHT22;7322;50.872;4.386;2024-01-15T03:11:25;17.00;99.90
14473;DHT22;7322;50.872;4.386;2024-01-15T03:13:52;17.00;99.90
14473;DHT22;7322;50.872;4.386;2024-01-15T03:16:20;16.90;99.90
14473;DHT22;7322;50.872;4.386;2024-01-15T03:18:47;16.90;99.90
14473;DHT22;7322;50.872;4.386;2024-01-15T03:21:14;16.90;99.90
14473;DHT22;7322;50.872;4.386;2024-01-15T03:23:41;17.00;99.90
14473;DHT22;7322;50.872;4.386;2024-01-15T03:26:08;16.90;99.90
14473;DHT22;7322;50.872;4.386;2024-01-15T03:28:35;17.00;99.90
14473;DHT22;7322;50.872;4.386;2024-01-15T03:31:02;16.90;99.90
14473;DHT22;7322;50.872;4.386;2024-01-15T03:33:34;16.90;99.90
14473;DHT22;7322;50.872;4.386;2024-01-15T03:36:01;16.90;99.90
14473;DHT22;7322;50.872;4.386;2024-01-15T03:38:28;16.90;99.90
14473;DHT22;7322;50.872;4.386;2024-01-15T03:40:55;16.90;99.90
14473;DHT22;7322;50.872;4.386;2024-01-15T03:43:22;16.90;99.90
14473;DHT22;7322;50.872;4.386;2024-01-15T03:45:49;16.90;99.90
14473;DHT22;7322;50.872;4.386;2024-01-15T03:48:16;16.80;99.90
14473;DHT22;7322;50.872;4.386;2024-01-15T03:50:45;16.90;99.90
14473;DHT22;7322;50.872;4.386;2024-01-15T03:53:12;16.90;99.90
14473;DHT22;7322;50.872;4.386;2024-01-15T03:55:38;16.90;99.90
14473;DHT22;7322;50.872;4.386;2024-01-15T03:58:05;17.00;99.90
14473;DHT22;7322;50.872;4.386;2024-01-15T04:00:32;17.00;99.90
14473;DHT22;7322;50.872;4.386;2024-01-15T04:02:59;16.90;99.90
14473;DHT22;7322;50.872;4.386;2024-01-15T04:05:26;16.90;99.90
14473;DHT22;7322;50.872;4.386;2024-01-15T04:07:55;16.90;99.90
14473;DHT22;7322;50.872;4.386;2024-01-15T04:10:22;16.90;99.90
14473;DHT22;7322;50.872;4.386;2024-01-15T04:12:49;16.90;99.90
14473;DHT22;7322;50.872;4.386;2024-01-15T04:15:16;16.80;99.90
14473;DHT22;7322;50.872;4.386;2024-01-15T04:17:45;16.90;99.90
14473;DHT22;7322;50.872;4.386;2024-01-15T04:20:12;16.90;99.90
14473;DHT22;7322;50.872;4.386;2024-01-15T04:22:39;16.80;99.90
14473;DHT22;7322;50.872;4.386;2024-01-15T04:25:07;16.90;99.90
14473;DHT22;7322;50.872;4.386;2024-01-15T04:27:34;16.90;99.90
14473;DHT22;7322;50.872;4.386;2024-01-15T04:30:01;16.80;99.90
14473;DHT22;7322;50.872;4.386;2024-01-15T04:32:29;16.80;99.90
14473;DHT22;7322;50.872;4.386;2024-01-15T04:34:56;16.90;99.90
14473;DHT22;7322;50.872;4.386;2024-01-15T04:37:23;16.90;99.90
14473;DHT22;7322;50.872;4.386;2024-01-15T04:39:51;16.90;99.90
14473;DHT22;7322;50.872;4.386;2024-01-15T04:42:22;16.90;99.90
14473;DHT22;7322;50.872;4.386;2024-01-15T04:44:49;16.90;99.90
14473;DHT22;7322;50.872;4.386;2024-01-15T04:47:16;16.80;99.90
14473;DHT22;7322;50.872;4.386;2024-01-15T04:49:43;16.80;99.90
14473;DHT22;7322;50.872;4.386;2024-01-15T04:52:15;16.80;99.90
14473;DHT22;7322;50.872;4.386;2024-01-15T04:54:43;16.80;99.90
14473;DHT22;7322;50.872;4.386;2024-01-15T04:57:10;16.80;99.90
14473;DHT22;7322;50.872;4.386;2024-01-15T04:59:39;16.80;99.90
14473;DHT22;7322;50.872;4.386;2024-01-15T05:02:06;16.80;99.90
14473;DHT22;7322;50.872;4.386;2024-01-15T05:04:33;16.80;99.90
14473;DHT22;7322;50.872;4.386;2024-01-15T05:07:00;16.80;99.90
14473;DHT22;7322;50.872;4.386;2024-01-15T05:09:27;16.80;99.90
14473;DHT22;7322;50.872;4.386;2024-01-15T05:11:54;16.80;99.90
14473;DHT22;7322;50.872;4.386;2024-01-15T05:14:21;16.80;99.90
14473;DHT22;7322;50.872;4.386;2024-01-15T05:16:50;16.80;99.90
14473;DHT22;7322;50.872;4.386;2024-01-15T05:19:17;16.80;99.90
14473;DHT22;7322;50.872;4.386;2024-01-15T05:21:44;16.80;99.90
14473;DHT22;7322;50.872;4.386;2024-01-15T05:24:12;16.80;99.90
14473;DHT22;7322;50.872;4.386;2024-01-15T05:26:40;16.80;99.90
14473;DHT22;7322;50.872;4.386;2024-01-15T05:29:07;16.80;99.90
14473;DHT22;7322;50.872;4.386;2024-01-15T05:31:35;16.70;99.90
14473;DHT22;7322;50.872;4.386;2024-01-15T05:34:04;16.70;99.90
14473;DHT22;7322;50.872;4.386;2024-01-15T05:36:31;16.80;99.90
14473;DHT22;7322;50.872;4.386;2024-01-15T05:38:58;16.70;99.90
14473;DHT22;7322;50.872;4.386;2024-01-15T05:41:25;16.80;99.90
14473;DHT22;7322;50.872;4.386;2024-01-15T05:43:52;16.70;99.90
14473;DHT22;7322;50.872;4.386;2024-01-15T05:46:19;16.80;99.90
14473;DHT22;7322;50.872;4.386;2024-01-15T05:48:46;16.80;99.90
14473;DHT22;7322;50.872;4.386;2024-01-15T05:51:14;16.80;99.90
14473;DHT22;7322;50.872;4.386;2024-01-15T05:53:41;16.80;99.90
14473;DHT22;7322;50.872;4.386;2024-01-15T05:56:10;16.70;99.90
14473;DHT22;7322;50.872;4.386;2024-01-15T05:58:37;16.80;99.90
14473;DHT22;7322;50.872;4.386;2024-01-15T06:01:05;16.70;99.90
14473;DHT22;7322;50.872;4.386;2024-01-15T06:03:32;16.90;99.90
14473;DHT22;7322;50.872;4.386;2024-01-15T06:05:59;17.10;99.90
14473;DHT22;7322;50.872;4.386;2024-01-15T06:08:27;17.30;99.90
14473;DHT22;7322;50.872;4.386;2024-01-15T06:10:56;17.50;99.90
14473;DHT22;7322;50.872;4.386;2024-01-15T06:13:23;17.80;99.90
14473;DHT22;7322;50.872;4.386;2024-01-15T06:16:13;18.00;99.90
14473;DHT22;7322;50.872;4.386;2024-01-15T06:19:08;18.20;99.90
14473;DHT22;7322;50.872;4.386;2024-01-15T06:21:35;18.40;99.90
14473;DHT22;7322;50.872;4.386;2024-01-15T06:24:07;18.40;99.90
14473;DHT22;7322;50.872;4.386;2024-01-15T06:26:35;18.50;99.90
14473;DHT22;7322;50.872;4.386;2024-01-15T06:29:08;18.50;99.90
14473;DHT22;7322;50.872;4.386;2024-01-15T06:31:36;18.50;99.90
14473;DHT22;7322;50.872;4.386;2024-01-15T06:34:03;18.50;99.90
14473;DHT22;7322;50.872;4.386;2024-01-15T06:36:30;18.50;99.90
14473;DHT22;7322;50.872;4.386;2024-01-15T06:38:57;18.40;99.90
14473;DHT22;7322;50.872;4.386;2024-01-15T06:41:25;18.40;99.90
14473;DHT22;7322;50.872;4.386;2024-01-15T06:43:52;18.40;99.90
14473;DHT22;7322;50.872;4.386;2024-01-15T06:46:20;18.30;99.90
14473;DHT22;7322;50.872;4.386;2024-01-15T06:48:47;18.30;99.90
14473;DHT22;7322;50.872;4.386;2024-01-15T06:51:16;18.20;99.90
14473;DHT22;7322;50.872;4.386;2024-01-15T06:53:43;18.20;99.90
14473;DHT22;7322;50.872;4.386;2024-01-15T06:56:10;18.20;99.90
14473;DHT22;7322;50.872;4.386;2024-01-15T06:58:38;18.20;99.90
14473;DHT22;7322;50.872;4.386;2024-01-15T07:01:05;18.20;99.90
14473;DHT22;7322;50.872;4.386;2024-01-15T07:03:33;18.20;99.90
14473;DHT22;7322;50.872;4.386;2024-01-15T07:06:00;18.20;99.90
14473;DHT22;7322;50.872;4.386;2024-01-15T07:08:27;18.20;99.90
14473;DHT22;7322;50.872;4.386;2024-01-15T07:10:55;18.20;99.90
14473;DHT22;7322;50.872;4.386;2024-01-15T07:13:25;18.20;99.90
14473;DHT22;7322;50.872;4.386;2024-01-15T07:15:57;18.20;99.90
14473;DHT22;7322;50.872;4.386;2024-01-15T07:18:35;18.10;99.90
14473;DHT22;7322;50.872;4.386;2024-01-15T07:21:04;18.10;99.90
14473;DHT22;7322;50.872;4.386;2024-01-15T07:23:44;18.10;99.90
14473;DHT22;7322;50.872;4.386;2024-01-15T07:26:13;18.00;99.90
14473;DHT22;7322;50.872;4.386;2024-01-15T07:28:49;18.00;99.90
14473;DHT22;7322;50.872;4.386;2024-01-15T07:31:19;18.00;99.90
14473;DHT22;7322;50.872;4.386;2024-01-15T07:33:48;18.00;99.90
14473;DHT22;7322;50.872;4.386;2024-01-15T07:36:21;18.00;99.90
14473;DHT22;7322;50.872;4.386;2024-01-15T07:39:08;18.00;99.90
14473;DHT22;7322;50.872;4.386;2024-01-15T07:41:47;17.90;99.90
14473;DHT22;7322;50.872;4.386;2024-01-15T07:44:14;17.90;99.90
14473;DHT22;7322;50.872;4.386;2024-01-15T07:46:51;17.90;99.90
14473;DHT22;7322;50.872;4.386;2024-01-15T07:49:21;17.90;99.90
14473;DHT22;7322;50.872;4.386;2024-01-15T07:51:49;17.80;99.90
14473;DHT22;7322;50.872;4.386;2024-01-15T07:54:22;17.80;99.90
14473;DHT22;7322;50.872;4.386;2024-01-15T07:56:58;17.80;99.90
14473;DHT22;7322;50.872;4.386;2024-01-15T07:59:27;17.80;99.90
14473;DHT22;7322;50.872;4.386;2024-01-15T08:02:07;17.80;99.90
14473;DHT22;7322;50.872;4.386;2024-01-15T08:04:41;17.80;99.90
14473;DHT22;7322;50.872;4.386;2024-01-15T08:07:08;17.80;99.90
14473;DHT22;7322;50.872;4.386;2024-01-15T08:09:36;17.90;99.90
14473;DHT22;7322;50.872;4.386;2024-01-15T08:12:04;17.90;99.90
14473;DHT22;7322;50.872;4.386;2024-01-15T08:14:32;17.70;99.90
14473;DHT22;7322;50.872;4.386;2024-01-15T08:20:08;17.70;99.90
14473;DHT22;7322;50.872;4.386;2024-01-15T08:22:38;17.50;99.90
14473;DHT22;7322;50.872;4.386;2024-01-15T08:25:07;17.50;99.90
14473;DHT22;7322;50.872;4.386;2024-01-15T08:27:44;17.40;99.90
14473;DHT22;7322;50.872;4.386;2024-01-15T08:30:24;17.30;99.90
14473;DHT22;7322;50.872;4.386;2024-01-15T08:32:53;17.30;99.90
14473;DHT22;7322;50.872;4.386;2024-01-15T08:35:21;17.30;99.90
14473;DHT22;7322;50.872;4.386;2024-01-15T08:37:49;17.30;99.90
14473;DHT22;7322;50.872;4.386;2024-01-15T08:40:18;17.20;99.90
14473;DHT22;7322;50.872;4.386;2024-01-15T08:43:03;17.20;99.90
14473;DHT22;7322;50.872;4.386;2024-01-15T08:45:32;17.10;99.90
14473;DHT22;7322;50.872;4.386;2024-01-15T08:48:32;17.10;99.90
14473;DHT22;7322;50.872;4.386;2024-01-15T08:51:02;17.00;99.90
14473;DHT22;7322;50.872;4.386;2024-01-15T08:53:30;17.10;99.90
14473;DHT22;7322;50.872;4.386;2024-01-15T08:56:04;17.10;99.90
14473;DHT22;7322;50.872;4.386;2024-01-15T08:58:31;17.10;99.90
14473;DHT22;7322;50.872;4.386;2024-01-15T09:01:01;17.10;99.90
14473;DHT22;7322;50.872;4.386;2024-01-15T09:03:30;17.10;99.90
14473;DHT22;7322;50.872;4.386;2024-01-15T09:05:57;17.00;99.90
14473;DHT22;7322;50.872;4.386;2024-01-15T09:08:32;17.10;99.90
14473;DHT22;7322;50.872;4.386;2024-01-15T09:11:10;17.00;99.90
14473;DHT22;7322;50.872;4.386;2024-01-15T09:13:49;17.10;99.90
14473;DHT22;7322;50.872;4.386;2024-01-15T09:16:29;17.30;99.90
14473;DHT22;7322;50.872;4.386;2024-01-15T09:18:56;17.40;99.90
14473;DHT22;7322;50.872;4.386;2024-01-15T09:21:40;17.40;99.90
14473;DHT22;7322;50.872;4.386;2024-01-15T09:24:08;17.50;99.90
14473;DHT22;7322;50.872;4.386;2024-01-15T09:26:35;17.50;99.90
14473;DHT22;7322;50.872;4.386;2024-01-15T09:29:04;17.60;99.90
14473;DHT22;7322;50.872;4.386;2024-01-15T09:31:38;17.50;99.90
14473;DHT22;7322;50.872;4.386;2024-01-15T09:34:06;17.50;99.90
14473;DHT22;7322;50.872;4.386;2024-01-15T09:36:39;17.60;99.90
14473;DHT22;7322;50.872;4.386;2024-01-15T09:39:11;17.60;99.90
14473;DHT22;7322;50.872;4.386;2024-01-15T09:41:49;17.60;99.90
14473;DHT22;7322;50.872;4.386;2024-01-15T09:44:34;17.60;99.90
14473;DHT22;7322;50.872;4.386;2024-01-15T09:50:04;17.60;99.90
14473;DHT22;7322;50.872;4.386;2024-01-15T09:52:37;17.60;99.90
14473;DHT22;7322;50.872;4.386;2024-01-15T09:55:09;17.60;99.90
14473;DHT22;7322;50.872;4.386;2024-01-15T09:57:40;17.70;99.90
14473;DHT22;7322;50.872;4.386;2024-01-15T10:00:11;17.60;99.90
14473;DHT22;7322;50.872;4.386;2024-01-15T10:02:39;17.60;99.90
14473;DHT22;7322;50.872;4.386;2024-01-15T10:05:08;17.60;99.90
14473;DHT22;7322;50.872;4.386;2024-01-15T10:07:48;17.60;99.90
14473;DHT22;7322;50.872;4.386;2024-01-15T10:10:18;17.50;99.90
14473;DHT22;7322;50.872;4.386;2024-01-15T10:12:45;17.50;99.90
14473;DHT22;7322;50.872;4.386;2024-01-15T10:15:13;17.50;99.90
14473;DHT22;7322;50.872;4.386;2024-01-15T10:17:40;17.50;99.90
14473;DHT22;7322;50.872;4.386;2024-01-15T10:20:09;17.60;99.90
14473;DHT22;7322;50.872;4.386;2024-01-15T10:22:40;17.60;99.90
14473;DHT22;7322;50.872;4.386;2024-01-15T10:25:10;17.60;99.90
14473;DHT22;7322;50.872;4.386;2024-01-15T10:27:39;17.60;99.90
14473;DHT22;7322;50.872;4.386;2024-01-15T10:30:08;17.60;99.90
14473;DHT22;7322;50.872;4.386;2024-01-15T10:32:36;17.60;99.90
14473;DHT22;7322;50.872;4.386;2024-01-15T10:35:10;17.70;99.90
14473;DHT22;7322;50.872;4.386;2024-01-15T10:37:43;17.60;99.90
14473;DHT22;7322;50.872;4.386;2024-01-15T10:40:11;17.60;99.90
14473;DHT22;7322;50.872;4.386;2024-01-15T10:42:43;17.60;99.90
14473;DHT22;7322;50.872;4.386;2024-01-15T10:45:11;17.60;99.90
14473;DHT22;7322;50.872;4.386;2024-01-15T10:47:40;17.70;99.90
14473;DHT22;7322;50.872;4.386;2024-01-15T10:53:55;17.60;99.90
14473;DHT22;7322;50.872;4.386;2024-01-15T10:56:24;17.60;99.90
14473;DHT22;7322;50.872;4.386;2024-01-15T10:59:11;17.60;99.90
14473;DHT22;7322;50.872;4.386;2024-01-15T11:01:39;17.60;99.90
14473;DHT22;7322;50.872;4.386;2024-01-15T11:04:08;17.60;99.90
14473;DHT22;7322;50.872;4.386;2024-01-15T11:06:42;17.50;99.90
14473;DHT22;7322;50.872;4.386;2024-01-15T11:09:12;17.50;99.90
14473;DHT22;7322;50.872;4.386;2024-01-15T11:11:41;17.50;99.90
14473;DHT22;7322;50.872;4.386;2024-01-15T11:14:10;17.70;99.90
14473;DHT22;7322;50.872;4.386;2024-01-15T11:16:57;17.80;99.90
14473;DHT22;7322;50.872;4.386;2024-01-15T11:19:25;18.00;99.90
14473;DHT22;7322;50.872;4.386;2024-01-15T11:21:52;18.30;99.90
14473;DHT22;7322;50.872;4.386;2024-01-15T11:24:39;18.50;99.90
14473;DHT22;7322;50.872;4.386;2024-01-15T11:27:07;18.80;99.90
14473;DHT22;7322;50.872;4.386;2024-01-15T11:29:37;19.00;99.90
14473;DHT22;7322;50.872;4.386;2024-01-15T11:32:05;19.20;99.90
14473;DHT22;7322;50.872;4.386;2024-01-15T11:34:52;19.40;99.90
14473;DHT22;7322;50.872;4.386;2024-01-15T11:37:20;19.50;99.90
14473;DHT22;7322;50.872;4.386;2024-01-15T11:39:54;19.60;99.90
14473;DHT22;7322;50.872;4.386;2024-01-15T11:42:22;19.70;99.90
14473;DHT22;7322;50.872;4.386;2024-01-15T11:44:52;19.80;99.90
14473;DHT22;7322;50.872;4.386;2024-01-15T11:47:53;19.70;99.90
14473;DHT22;7322;50.872;4.386;2024-01-15T11:50:27;19.80;99.90
14473;DHT22;7322;50.872;4.386;2024-01-15T11:53:00;19.80;99.90
14473;DHT22;7322;50.872;4.386;2024-01-15T11:55:30;19.80;99.90
14473;DHT22;7322;50.872;4.386;2024-01-15T11:58:02;19.80;99.90
14473;DHT22;7322;50.872;4.386;2024-01-15T12:00:34;19.70;99.90
14473;DHT22;7322;50.872;4.386;2024-01-15T12:06:25;19.70;99.90
14473;DHT22;7322;50.872;4.386;2024-01-15T12:09:06;19.60;99.90
14473;DHT22;7322;50.872;4.386;2024-01-15T12:14:40;19.50;99.90
14473;DHT22;7322;50.872;4.386;2024-01-15T12:17:20;19.50;99.90
14473;DHT22;7322;50.872;4.386;2024-01-15T12:19:57;19.50;99.90
14473;DHT22;7322;50.872;4.386;2024-01-15T12:22:31;19.50;99.90
14473;DHT22;7322;50.872;4.386;2024-01-15T12:24:58;19.50;99.90
14473;DHT22;7322;50.872;4.386;2024-01-15T12:27:27;19.50;99.90
14473;DHT22;7322;50.872;4.386;2024-01-15T12:29:57;19.50;99.90
14473;DHT22;7322;50.872;4.386;2024-01-15T12:32:26;19.50;99.90
14473;DHT22;7322;50.872;4.386;2024-01-15T12:35:00;19.50;99.90
14473;DHT22;7322;50.872;4.386;2024-01-15T12:37:38;19.60;99.90
14473;DHT22;7322;50.872;4.386;2024-01-15T12:40:07;19.60;99.90
14473;DHT22;7322;50.872;4.386;2024-01-15T12:42:52;19.60;99.90
14473;DHT22;7322;50.872;4.386;2024-01-15T12:45:21;19.60;99.90
14473;DHT22;7322;50.872;4.386;2024-01-15T12:47:59;19.70;99.90
14473;DHT22;7322;50.872;4.386;2024-01-15T12:50:40;19.70;99.90
14473;DHT22;7322;50.872;4.386;2024-01-15T12:53:09;19.20;99.90
14473;DHT22;7322;50.872;4.386;2024-01-15T12:55:40;18.90;99.90
14473;DHT22;7322;50.872;4.386;2024-01-15T12:58:14;18.70;99.90
14473;DHT22;7322;50.872;4.386;2024-01-15T13:00:43;18.60;99.90
14473;DHT22;7322;50.872;4.386;2024-01-15T13:03:13;18.50;99.90
14473;DHT22;7322;50.872;4.386;2024-01-15T13:05:41;18.60;99.90
14473;DHT22;7322;50.872;4.386;2024-01-15T13:08:08;18.60;99.90
14473;DHT22;7322;50.872;4.386;2024-01-15T13:10:35;18.60;99.90
14473;DHT22;7322;50.872;4.386;2024-01-15T13:13:12;18.60;99.90
14473;DHT22;7322;50.872;4.386;2024-01-15T13:15:40;18.50;99.90
14473;DHT22;7322;50.872;4.386;2024-01-15T13:18:09;18.60;99.90
14473;DHT22;7322;50.872;4.386;2024-01-15T13:20:42;18.50;99.90
14473;DHT22;7322;50.872;4.386;2024-01-15T13:23:14;18.60;99.90
14473;DHT22;7322;50.872;4.386;2024-01-15T13:25:42;18.70;99.90
14473;DHT22;7322;50.872;4.386;2024-01-15T13:28:35;18.80;99.90
14473;DHT22;7322;50.872;4.386;2024-01-15T13:31:08;18.60;99.90
14473;DHT22;7322;50.872;4.386;2024-01-15T13:33:39;18.60;99.90
14473;DHT22;7322;50.872;4.386;2024-01-15T13:36:08;18.50;99.90
14473;DHT22;7322;50.872;4.386;2024-01-15T13:38:38;18.50;99.90
14473;DHT22;7322;50.872;4.386;2024-01-15T13:41:05;18.50;99.90
14473;DHT22;7322;50.872;4.386;2024-01-15T13:43:34;18.50;99.90
14473;DHT22;7322;50.872;4.386;2024-01-15T13:46:03;18.40;99.90
14473;DHT22;7322;50.872;4.386;2024-01-15T13:48:32;18.40;99.90
14473;DHT22;7322;50.872;4.386;2024-01-15T13:51:05;18.40;99.90
14473;DHT22;7322;50.872;4.386;2024-01-15T13:53:33;18.40;99.90
14473;DHT22;7322;50.872;4.386;2024-01-15T13:56:09;18.40;99.90
14473;DHT22;7322;50.872;4.386;2024-01-15T13:59:09;18.30;99.90
14473;DHT22;7322;50.872;4.386;2024-01-15T14:01:37;18.30;99.90
14473;DHT22;7322;50.872;4.386;2024-01-15T14:07:12;18.40;99.90
14473;DHT22;7322;50.872;4.386;2024-01-15T14:09:51;18.40;99.90
14473;DHT22;7322;50.872;4.386;2024-01-15T14:12:25;18.40;99.90
14473;DHT22;7322;50.872;4.386;2024-01-15T14:14:52;18.40;99.90
14473;DHT22;7322;50.872;4.386;2024-01-15T14:17:19;18.50;99.90
14473;DHT22;7322;50.872;4.386;2024-01-15T14:19:52;18.50;99.90
14473;DHT22;7322;50.872;4.386;2024-01-15T14:22:19;18.50;99.90
14473;DHT22;7322;50.872;4.386;2024-01-15T14:24:46;18.50;99.90
14473;DHT22;7322;50.872;4.386;2024-01-15T14:27:28;18.50;99.90
14473;DHT22;7322;50.872;4.386;2024-01-15T14:29:55;18.50;99.90
14473;DHT22;7322;50.872;4.386;2024-01-15T14:32:24;18.60;99.90
14473;DHT22;7322;50.872;4.386;2024-01-15T14:34:53;18.60;99.90
14473;DHT22;7322;50.872;4.386;2024-01-15T14:37:22;18.60;99.90
14473;DHT22;7322;50.872;4.386;2024-01-15T14:39:50;18.60;99.90
14473;DHT22;7322;50.872;4.386;2024-01-15T14:42:18;18.60;99.90
14473;DHT22;7322;50.872;4.386;2024-01-15T14:44:48;18.60;99.90
14473;DHT22;7322;50.872;4.386;2024-01-15T14:47:31;18.60;99.90
14473;DHT22;7322;50.872;4.386;2024-01-15T14:49:58;18.70;99.90
14473;DHT22;7322;50.872;4.386;2024-01-15T14:52:33;18.70;99.90
14473;DHT22;7322;50.872;4.386;2024-01-15T14:55:03;18.70;99.90
14473;DHT22;7322;50.872;4.386;2024-01-15T14:57:39;18.60;99.90
14473;DHT22;7322;50.872;4.386;2024-01-15T15:00:08;18.80;99.90
14473;DHT22;7322;50.872;4.386;2024-01-15T15:02:47;19.10;99.90
14473;DHT22;7322;50.872;4.386;2024-01-15T15:05:17;19.40;99.90
14473;DHT22;7322;50.872;4.386;2024-01-15T15:07:46;19.50;99.90
14473;DHT22;7322;50.872;4.386;2024-01-15T15:10:13;19.50;99.90
14473;DHT22;7322;50.872;4.386;2024-01-15T15:12:44;19.60;99.90
14473;DHT22;7322;50.872;4.386;2024-01-15T15:15:13;19.60;99.90
14473;DHT22;7322;50.872;4.386;2024-01-15T15:17:42;19.60;99.90
14473;DHT22;7322;50.872;4.386;2024-01-15T15:20:10;19.60;99.90
14473;DHT22;7322;50.872;4.386;2024-01-15T15:22:39;19.60;99.90
14473;DHT22;7322;50.872;4.386;2024-01-15T15:25:13;19.70;99.90
14473;DHT22;7322;50.872;4.386;2024-01-15T15:27:40;19.70;99.90
14473;DHT22;7322;50.872;4.386;2024-01-15T15:30:08;19.70;99.90
14473;DHT22;7322;50.872;4.386;2024-01-15T15:32:46;19.70;99.90
14473;DHT22;7322;50.872;4.386;2024-01-15T15:35:14;19.70;99.90
14473;DHT22;7322;50.872;4.386;2024-01-15T15:37:57;19.70;99.90
14473;DHT22;7322;50.872;4.386;2024-01-15T15:40:28;19.70;99.90
14473;DHT22;7322;50.872;4.386;2024-01-15T15:42:55;19.60;99.90
14473;DHT22;7322;50.872;4.386;2024-01-15T15:45:23;19.60;99.90
14473;DHT22;7322;50.872;4.386;2024-01-15T15:48:01;19.60;99.90
14473;DHT22;7322;50.872;4.386;2024-01-15T15:51:06;19.70;99.90
14473;DHT22;7322;50.872;4.386;2024-01-15T15:53:32;19.60;99.90
14473;DHT22;7322;50.872;4.386;2024-01-15T15:56:02;19.70;99.90
14473;DHT22;7322;50.872;4.386;2024-01-15T15:58:30;19.70;99.90
14473;DHT22;7322;50.872;4.386;2024-01-15T16:01:01;19.70;99.90
14473;DHT22;7322;50.872;4.386;2024-01-15T16:03:30;19.70;99.90
14473;DHT22;7322;50.872;4.386;2024-01-15T16:05:58;19.70;99.90
14473;DHT22;7322;50.872;4.386;2024-01-15T16:08:25;19.70;99.90
14473;DHT22;7322;50.872;4.386;2024-01-15T16:10:52;19.70;99.90
14473;DHT22;7322;50.872;4.386;2024-01-15T16:13:21;19.70;99.90
14473;DHT22;7322;50.872;4.386;2024-01-15T16:15:48;19.70;99.90
14473;DHT22;7322;50.872;4.386;2024-01-15T16:18:15;19.70;99.90
14473;DHT22;7322;50.872;4.386;2024-01-15T16:20:43;19.70;99.90
14473;DHT22;7322;50.872;4.386;2024-01-15T16:23:10;19.60;99.90